sensor_id;sensor_type;location;lat;lon;timestamp;P1;durP1;ratioP1;P2;durP2;ratioP2
846;SDS011;410;48.954;9.474;2023-04-21T00:01:32;40.53;;;13.63;;
846;SDS011;410;48.954;9.474;2023-04-21T00:03:36;42.03;;;14.03;;
846;SDS011;410;48.954;9.474;2023-04-21T00:05:39;33.75;;;13.15;;
846;SDS011;410;48.954;9.474;2023-04-21T00:07:43;31.50;;;12.73;;
846;SDS011;410;48.954;9.474;2023-04-21T00:09:46;33.20;;;13.70;;
846;SDS011;410;48.954;9.474;2023-04-21T00:11:49;22.10;;;12.43;;
846;SDS011;410;48.954;9.474;2023-04-21T00:13:52;27.70;;;13.40;;
846;SDS011;410;48.954;9.474;2023-04-21T00:15:58;34.42;;;13.65;;
846;SDS011;410;48.954;9.474;2023-04-21T00:18:01;24.02;;;13.45;;
846;SDS011;410;48.954;9.474;2023-04-21T00:20:04;27.35;;;12.93;;
846;SDS011;410;48.954;9.474;2023-04-21T00:22:09;32.13;;;13.60;;
846;SDS011;410;48.954;9.474;2023-04-21T00:24:15;63.83;;;15.70;;
846;SDS011;410;48.954;9.474;2023-04-21T00:26:18;45.05;;;14.15;;
846;SDS011;410;48.954;9.474;2023-04-21T00:28:23;20.52;;;12.18;;
846;SDS011;410;48.954;9.474;2023-04-21T00:30:26;28.95;;;13.05;;
846;SDS011;410;48.954;9.474;2023-04-21T00:32:32;24.73;;;13.27;;
846;SDS011;410;48.954;9.474;2023-04-21T00:34:36;12.90;;;11.50;;
846;SDS011;410;48.954;9.474;2023-04-21T00:36:39;15.35;;;12.95;;
846;SDS011;410;48.954;9.474;2023-04-21T00:38:42;15.95;;;13.02;;
846;SDS011;410;48.954;9.474;2023-04-21T00:40:45;17.23;;;13.40;;
846;SDS011;410;48.954;9.474;2023-04-21T00:42:48;17.98;;;14.02;;
846;SDS011;410;48.954;9.474;2023-04-21T00:44:51;16.60;;;13.55;;
846;SDS011;410;48.954;9.474;2023-04-21T00:46:54;18.25;;;14.05;;
846;SDS011;410;48.954;9.474;2023-04-21T00:48:59;23.60;;;13.43;;
846;SDS011;410;48.954;9.474;2023-04-21T00:51:05;20.08;;;13.35;;
846;SDS011;410;48.954;9.474;2023-04-21T00:53:08;19.33;;;12.85;;
846;SDS011;410;48.954;9.474;2023-04-21T00:55:11;16.30;;;11.68;;
846;SDS011;410;48.954;9.474;2023-04-21T00:57:16;17.77;;;10.93;;
846;SDS011;410;48.954;9.474;2023-04-21T00:59:19;19.10;;;10.57;;
846;SDS011;410;48.954;9.474;2023-04-21T01:01:22;49.38;;;14.25;;
846;SDS011;410;48.954;9.474;2023-04-21T01:03:25;47.88;;;15.23;;
846;SDS011;410;48.954;9.474;2023-04-21T01:05:31;44.22;;;14.25;;
846;SDS011;410;48.954;9.474;2023-04-21T01:07:34;64.90;;;15.85;;
846;SDS011;410;48.954;9.474;2023-04-21T01:09:37;39.17;;;13.93;;
846;SDS011;410;48.954;9.474;2023-04-21T01:11:40;32.60;;;13.05;;
846;SDS011;410;48.954;9.474;2023-04-21T01:13:43;35.85;;;13.30;;
846;SDS011;410;48.954;9.474;2023-04-21T01:15:46;25.83;;;13.50;;
846;SDS011;410;48.954;9.474;2023-04-21T01:17:49;33.97;;;12.55;;
846;SDS011;410;48.954;9.474;2023-04-21T01:19:54;51.80;;;13.68;;
846;SDS011;410;48.954;9.474;2023-04-21T01:22:02;27.00;;;13.13;;
846;SDS011;410;48.954;9.474;2023-04-21T01:24:05;28.88;;;13.35;;
846;SDS011;410;48.954;9.474;2023-04-21T01:26:09;38.55;;;12.98;;
846;SDS011;410;48.954;9.474;2023-04-21T01:28:12;30.08;;;11.90;;
846;SDS011;410;48.954;9.474;2023-04-21T01:30:15;22.25;;;11.88;;
846;SDS011;410;48.954;9.474;2023-04-21T01:32:18;33.63;;;13.07;;
846;SDS011;410;48.954;9.474;2023-04-21T01:34:26;36.47;;;12.67;;
846;SDS011;410;48.954;9.474;2023-04-21T01:36:29;41.60;;;13.40;;
846;SDS011;410;48.954;9.474;2023-04-21T01:38:36;37.20;;;11.60;;
846;SDS011;410;48.954;9.474;2023-04-21T01:40:40;23.25;;;11.52;;
846;SDS011;410;48.954;9.474;2023-04-21T01:42:43;23.60;;;11.75;;
846;SDS011;410;48.954;9.474;2023-04-21T01:44:47;31.63;;;11.25;;
846;SDS011;410;48.954;9.474;2023-04-21T01:46:51;22.30;;;10.57;;
846;SDS011;410;48.954;9.474;2023-04-21T01:48:54;11.23;;;9.63;;
846;SDS011;410;48.954;9.474;2023-04-21T01:50:57;14.18;;;11.40;;
846;SDS011;410;48.954;9.474;2023-04-21T01:53:01;15.98;;;11.52;;
846;SDS011;410;48.954;9.474;2023-04-21T01:55:05;17.60;;;12.80;;
846;SDS011;410;48.954;9.474;2023-04-21T01:57:09;26.52;;;13.25;;
846;SDS011;410;48.954;9.474;2023-04-21T01:59:13;29.40;;;13.40;;
846;SDS011;410;48.954;9.474;2023-04-21T02:01:17;43.95;;;14.40;;
846;SDS011;410;48.954;9.474;2023-04-21T02:03:20;31.73;;;13.32;;
846;SDS011;410;48.954;9.474;2023-04-21T02:05:23;32.90;;;13.40;;
846;SDS011;410;48.954;9.474;2023-04-21T02:07:26;33.85;;;13.40;;
846;SDS011;410;48.954;9.474;2023-04-21T02:09:30;50.97;;;14.30;;
846;SDS011;410;48.954;9.474;2023-04-21T02:11:34;36.25;;;14.50;;
846;SDS011;410;48.954;9.474;2023-04-21T02:13:38;64.82;;;15.32;;
846;SDS011;410;48.954;9.474;2023-04-21T02:15:41;39.00;;;13.98;;
846;SDS011;410;48.954;9.474;2023-04-21T02:17:44;51.05;;;14.18;;
846;SDS011;410;48.954;9.474;2023-04-21T02:19:48;42.83;;;13.23;;
846;SDS011;410;48.954;9.474;2023-04-21T02:21:51;56.00;;;14.77;;
846;SDS011;410;48.954;9.474;2023-04-21T02:23:55;53.88;;;14.88;;
846;SDS011;410;48.954;9.474;2023-04-21T02:26:00;38.70;;;14.13;;
846;SDS011;410;48.954;9.474;2023-04-21T02:28:09;24.60;;;13.00;;
846;SDS011;410;48.954;9.474;2023-04-21T02:30:12;47.00;;;15.25;;
846;SDS011;410;48.954;9.474;2023-04-21T02:32:16;45.88;;;16.63;;
846;SDS011;410;48.954;9.474;2023-04-21T02:34:26;39.38;;;14.63;;
846;SDS011;410;48.954;9.474;2023-04-21T02:36:30;37.35;;;14.15;;
846;SDS011;410;48.954;9.474;2023-04-21T02:38:33;28.73;;;14.60;;
846;SDS011;410;48.954;9.474;2023-04-21T02:40:36;82.38;;;16.17;;
846;SDS011;410;48.954;9.474;2023-04-21T02:42:39;30.98;;;12.88;;
846;SDS011;410;48.954;9.474;2023-04-21T02:44:44;30.00;;;13.50;;
846;SDS011;410;48.954;9.474;2023-04-21T02:46:47;25.38;;;12.35;;
846;SDS011;410;48.954;9.474;2023-04-21T02:48:50;46.05;;;14.02;;
846;SDS011;410;48.954;9.474;2023-04-21T02:50:53;37.97;;;12.93;;
846;SDS011;410;48.954;9.474;2023-04-21T02:52:56;44.63;;;12.70;;
846;SDS011;410;48.954;9.474;2023-04-21T02:54:59;38.53;;;13.88;;
846;SDS011;410;48.954;9.474;2023-04-21T02:57:04;40.80;;;13.38;;
846;SDS011;410;48.954;9.474;2023-04-21T02:59:07;48.42;;;14.43;;
846;SDS011;410;48.954;9.474;2023-04-21T03:01:14;38.17;;;11.20;;
846;SDS011;410;48.954;9.474;2023-04-21T03:03:18;44.75;;;13.98;;
846;SDS011;410;48.954;9.474;2023-04-21T03:05:21;101.68;;;17.13;;
846;SDS011;410;48.954;9.474;2023-04-21T03:07:24;35.80;;;13.40;;
846;SDS011;410;48.954;9.474;2023-04-21T03:09:27;38.45;;;14.82;;
846;SDS011;410;48.954;9.474;2023-04-21T03:11:30;74.88;;;17.77;;
846;SDS011;410;48.954;9.474;2023-04-21T03:13:33;95.60;;;15.52;;
846;SDS011;410;48.954;9.474;2023-04-21T03:15:37;80.75;;;15.95;;
846;SDS011;410;48.954;9.474;2023-04-21T03:17:41;69.88;;;14.07;;
846;SDS011;410;48.954;9.474;2023-04-21T03:19:44;109.38;;;16.30;;
846;SDS011;410;48.954;9.474;2023-04-21T03:21:47;80.07;;;13.93;;
846;SDS011;410;48.954;9.474;2023-04-21T03:23:51;86.18;;;15.73;;
846;SDS011;410;48.954;9.474;2023-04-21T03:25:54;60.15;;;14.63;;
846;SDS011;410;48.954;9.474;2023-04-21T03:27:57;51.80;;;13.63;;
846;SDS011;410;48.954;9.474;2023-04-21T03:30:00;49.97;;;13.23;;
846;SDS011;410;48.954;9.474;2023-04-21T03:32:04;51.08;;;12.98;;
846;SDS011;410;48.954;9.474;2023-04-21T03:34:09;61.72;;;13.15;;
846;SDS011;410;48.954;9.474;2023-04-21T03:36:12;35.78;;;11.95;;
846;SDS011;410;48.954;9.474;2023-04-21T03:38:16;43.95;;;11.60;;
846;SDS011;410;48.954;9.474;2023-04-21T03:40:19;34.20;;;11.65;;
846;SDS011;410;48.954;9.474;2023-04-21T03:42:23;29.08;;;10.70;;
846;SDS011;410;48.954;9.474;2023-04-21T03:44:26;27.23;;;11.00;;
846;SDS011;410;48.954;9.474;2023-04-21T03:46:30;47.75;;;12.93;;
846;SDS011;410;48.954;9.474;2023-04-21T03:48:33;37.30;;;10.98;;
846;SDS011;410;48.954;9.474;2023-04-21T03:50:38;65.88;;;14.57;;
846;SDS011;410;48.954;9.474;2023-04-21T03:52:41;34.03;;;11.73;;
846;SDS011;410;48.954;9.474;2023-04-21T03:54:44;28.48;;;10.43;;
846;SDS011;410;48.954;9.474;2023-04-21T03:56:47;43.95;;;11.50;;
846;SDS011;410;48.954;9.474;2023-04-21T03:58:50;43.22;;;11.32;;
846;SDS011;410;48.954;9.474;2023-04-21T04:00:53;30.83;;;10.02;;
846;SDS011;410;48.954;9.474;2023-04-21T04:02:56;36.60;;;10.38;;
846;SDS011;410;48.954;9.474;2023-04-21T04:05:00;42.55;;;11.90;;
846;SDS011;410;48.954;9.474;2023-04-21T04:07:05;32.25;;;9.75;;
846;SDS011;410;48.954;9.474;2023-04-21T04:09:10;50.90;;;11.07;;
846;SDS011;410;48.954;9.474;2023-04-21T04:11:13;36.45;;;10.55;;
846;SDS011;410;48.954;9.474;2023-04-21T04:13:16;32.75;;;10.57;;
846;SDS011;410;48.954;9.474;2023-04-21T04:15:19;46.25;;;12.85;;
846;SDS011;410;48.954;9.474;2023-04-21T04:17:23;40.30;;;10.65;;
846;SDS011;410;48.954;9.474;2023-04-21T04:19:28;69.72;;;14.20;;
846;SDS011;410;48.954;9.474;2023-04-21T04:21:32;52.38;;;11.48;;
846;SDS011;410;48.954;9.474;2023-04-21T04:23:37;57.63;;;11.50;;
846;SDS011;410;48.954;9.474;2023-04-21T04:25:39;28.27;;;10.40;;
846;SDS011;410;48.954;9.474;2023-04-21T04:27:43;28.35;;;9.45;;
846;SDS011;410;48.954;9.474;2023-04-21T04:29:46;51.50;;;12.07;;
846;SDS011;410;48.954;9.474;2023-04-21T04:31:50;46.80;;;12.80;;
846;SDS011;410;48.954;9.474;2023-04-21T04:33:53;45.45;;;11.48;;
846;SDS011;410;48.954;9.474;2023-04-21T04:35:59;77.85;;;11.95;;
846;SDS011;410;48.954;9.474;2023-04-21T04:38:02;33.83;;;10.15;;
846;SDS011;410;48.954;9.474;2023-04-21T04:40:07;36.22;;;10.75;;
846;SDS011;410;48.954;9.474;2023-04-21T04:42:12;26.58;;;9.60;;
846;SDS011;410;48.954;9.474;2023-04-21T04:44:15;22.20;;;8.43;;
846;SDS011;410;48.954;9.474;2023-04-21T04:46:19;22.00;;;9.65;;
846;SDS011;410;48.954;9.474;2023-04-21T04:48:23;21.15;;;8.65;;
846;SDS011;410;48.954;9.474;2023-04-21T04:50:26;37.47;;;9.77;;
846;SDS011;410;48.954;9.474;2023-04-21T04:52:30;39.97;;;10.32;;
846;SDS011;410;48.954;9.474;2023-04-21T04:54:33;40.58;;;14.35;;
846;SDS011;410;48.954;9.474;2023-04-21T04:56:38;22.02;;;11.60;;
846;SDS011;410;48.954;9.474;2023-04-21T04:58:41;20.75;;;8.55;;
846;SDS011;410;48.954;9.474;2023-04-21T05:00:46;30.02;;;8.55;;
846;SDS011;410;48.954;9.474;2023-04-21T05:02:49;23.75;;;10.10;;
846;SDS011;410;48.954;9.474;2023-04-21T05:04:53;19.42;;;9.25;;
846;SDS011;410;48.954;9.474;2023-04-21T05:06:56;16.05;;;9.18;;
846;SDS011;410;48.954;9.474;2023-04-21T05:08:59;14.20;;;9.43;;
846;SDS011;410;48.954;9.474;2023-04-21T05:11:02;12.98;;;9.90;;
846;SDS011;410;48.954;9.474;2023-04-21T05:13:07;14.18;;;11.73;;
846;SDS011;410;48.954;9.474;2023-04-21T05:15:10;12.90;;;10.50;;
846;SDS011;410;48.954;9.474;2023-04-21T05:17:13;13.45;;;10.27;;
846;SDS011;410;48.954;9.474;2023-04-21T05:19:16;22.73;;;10.00;;
846;SDS011;410;48.954;9.474;2023-04-21T05:21:23;17.85;;;10.52;;
846;SDS011;410;48.954;9.474;2023-04-21T05:23:28;34.50;;;10.70;;
846;SDS011;410;48.954;9.474;2023-04-21T05:25:31;37.53;;;10.57;;
846;SDS011;410;48.954;9.474;2023-04-21T05:27:34;22.17;;;11.20;;
846;SDS011;410;48.954;9.474;2023-04-21T05:29:39;21.90;;;10.50;;
846;SDS011;410;48.954;9.474;2023-04-21T05:31:42;26.95;;;10.85;;
846;SDS011;410;48.954;9.474;2023-04-21T05:33:45;14.95;;;12.10;;
846;SDS011;410;48.954;9.474;2023-04-21T05:35:49;14.63;;;12.60;;
846;SDS011;410;48.954;9.474;2023-04-21T05:37:53;14.88;;;11.60;;
846;SDS011;410;48.954;9.474;2023-04-21T05:39:58;15.77;;;11.52;;
846;SDS011;410;48.954;9.474;2023-04-21T05:42:02;15.02;;;11.27;;
846;SDS011;410;48.954;9.474;2023-04-21T05:44:05;14.27;;;11.77;;
846;SDS011;410;48.954;9.474;2023-04-21T05:46:10;16.27;;;12.45;;
846;SDS011;410;48.954;9.474;2023-04-21T05:48:13;16.60;;;12.80;;
846;SDS011;410;48.954;9.474;2023-04-21T05:50:16;16.77;;;12.68;;
846;SDS011;410;48.954;9.474;2023-04-21T05:52:20;17.80;;;12.70;;
846;SDS011;410;48.954;9.474;2023-04-21T05:54:23;16.75;;;12.25;;
846;SDS011;410;48.954;9.474;2023-04-21T05:56:26;15.82;;;12.93;;
846;SDS011;410;48.954;9.474;2023-04-21T05:58:29;16.45;;;14.18;;
846;SDS011;410;48.954;9.474;2023-04-21T06:00:32;19.65;;;14.50;;
846;SDS011;410;48.954;9.474;2023-04-21T06:02:37;17.38;;;12.85;;
846;SDS011;410;48.954;9.474;2023-04-21T06:04:40;16.10;;;12.00;;
846;SDS011;410;48.954;9.474;2023-04-21T06:06:44;15.50;;;12.50;;
846;SDS011;410;48.954;9.474;2023-04-21T06:08:47;16.67;;;13.35;;
846;SDS011;410;48.954;9.474;2023-04-21T06:10:50;15.40;;;12.55;;
846;SDS011;410;48.954;9.474;2023-04-21T06:12:54;16.57;;;12.80;;
846;SDS011;410;48.954;9.474;2023-04-21T06:14:57;18.73;;;13.65;;
846;SDS011;410;48.954;9.474;2023-04-21T06:17:00;18.65;;;14.07;;
846;SDS011;410;48.954;9.474;2023-04-21T06:19:04;22.40;;;14.40;;
846;SDS011;410;48.954;9.474;2023-04-21T06:21:08;19.63;;;14.07;;
846;SDS011;410;48.954;9.474;2023-04-21T06:23:11;19.30;;;14.20;;
846;SDS011;410;48.954;9.474;2023-04-21T06:25:14;18.83;;;14.25;;
846;SDS011;410;48.954;9.474;2023-04-21T06:27:17;16.83;;;13.50;;
846;SDS011;410;48.954;9.474;2023-04-21T06:29:20;19.02;;;13.55;;
846;SDS011;410;48.954;9.474;2023-04-21T06:31:23;21.57;;;16.80;;
846;SDS011;410;48.954;9.474;2023-04-21T06:33:26;17.50;;;13.20;;
846;SDS011;410;48.954;9.474;2023-04-21T06:35:31;15.55;;;13.23;;
846;SDS011;410;48.954;9.474;2023-04-21T06:37:34;16.60;;;13.05;;
846;SDS011;410;48.954;9.474;2023-04-21T06:39:38;20.33;;;15.27;;
846;SDS011;410;48.954;9.474;2023-04-21T06:41:41;18.27;;;14.70;;
846;SDS011;410;48.954;9.474;2023-04-21T06:43:44;15.70;;;12.93;;
846;SDS011;410;48.954;9.474;2023-04-21T06:45:47;23.53;;;18.77;;
846;SDS011;410;48.954;9.474;2023-04-21T06:47:50;18.17;;;15.13;;
846;SDS011;410;48.954;9.474;2023-04-21T06:49:53;14.37;;;11.43;;
846;SDS011;410;48.954;9.474;2023-04-21T06:51:58;18.03;;;14.13;;
846;SDS011;410;48.954;9.474;2023-04-21T06:54:01;16.63;;;13.93;;
846;SDS011;410;48.954;9.474;2023-04-21T06:56:05;13.93;;;11.10;;
846;SDS011;410;48.954;9.474;2023-04-21T06:58:08;13.13;;;10.20;;
846;SDS011;410;48.954;9.474;2023-04-21T07:00:12;16.17;;;12.48;;
846;SDS011;410;48.954;9.474;2023-04-21T07:02:16;13.57;;;10.57;;
846;SDS011;410;48.954;9.474;2023-04-21T07:04:19;10.73;;;9.00;;
846;SDS011;410;48.954;9.474;2023-04-21T07:06:22;12.10;;;10.15;;
846;SDS011;410;48.954;9.474;2023-04-21T07:08:26;19.73;;;16.47;;
846;SDS011;410;48.954;9.474;2023-04-21T07:10:29;12.90;;;10.70;;
846;SDS011;410;48.954;9.474;2023-04-21T07:12:33;13.13;;;10.50;;
846;SDS011;410;48.954;9.474;2023-04-21T07:14:36;13.47;;;10.60;;
846;SDS011;410;48.954;9.474;2023-04-21T07:16:39;12.05;;;10.77;;
846;SDS011;410;48.954;9.474;2023-04-21T07:18:42;13.98;;;12.10;;
846;SDS011;410;48.954;9.474;2023-04-21T07:20:45;13.77;;;12.07;;
846;SDS011;410;48.954;9.474;2023-04-21T07:22:48;15.67;;;13.07;;
846;SDS011;410;48.954;9.474;2023-04-21T07:24:53;14.50;;;12.40;;
846;SDS011;410;48.954;9.474;2023-04-21T07:26:56;14.33;;;12.07;;
846;SDS011;410;48.954;9.474;2023-04-21T07:28:59;14.97;;;12.40;;
846;SDS011;410;48.954;9.474;2023-04-21T07:31:02;13.23;;;11.73;;
846;SDS011;410;48.954;9.474;2023-04-21T07:33:05;16.60;;;12.40;;
846;SDS011;410;48.954;9.474;2023-04-21T07:35:09;14.80;;;11.90;;
846;SDS011;410;48.954;9.474;2023-04-21T07:37:12;16.80;;;13.40;;
846;SDS011;410;48.954;9.474;2023-04-21T07:39:15;16.70;;;12.80;;
846;SDS011;410;48.954;9.474;2023-04-21T07:41:20;12.83;;;11.13;;
846;SDS011;410;48.954;9.474;2023-04-21T07:43:23;17.90;;;14.90;;
846;SDS011;410;48.954;9.474;2023-04-21T07:45:27;15.83;;;12.90;;
846;SDS011;410;48.954;9.474;2023-04-21T07:47:30;16.83;;;13.80;;
846;SDS011;410;48.954;9.474;2023-04-21T07:49:34;13.90;;;11.40;;
846;SDS011;410;48.954;9.474;2023-04-21T07:51:37;13.43;;;11.80;;
846;SDS011;410;48.954;9.474;2023-04-21T07:53:40;15.90;;;13.53;;
846;SDS011;410;48.954;9.474;2023-04-21T07:55:44;15.43;;;13.30;;
846;SDS011;410;48.954;9.474;2023-04-21T07:57:48;17.83;;;14.70;;
846;SDS011;410;48.954;9.474;2023-04-21T07:59:54;18.60;;;15.00;;
846;SDS011;410;48.954;9.474;2023-04-21T08:01:57;18.17;;;14.10;;
846;SDS011;410;48.954;9.474;2023-04-21T08:04:01;15.57;;;12.67;;
846;SDS011;410;48.954;9.474;2023-04-21T08:06:04;16.33;;;13.47;;
846;SDS011;410;48.954;9.474;2023-04-21T08:08:08;19.00;;;14.60;;
846;SDS011;410;48.954;9.474;2023-04-21T08:10:11;23.80;;;16.93;;
846;SDS011;410;48.954;9.474;2023-04-21T08:12:15;21.43;;;14.43;;
846;SDS011;410;48.954;9.474;2023-04-21T08:14:20;18.50;;;15.17;;
846;SDS011;410;48.954;9.474;2023-04-21T08:16:23;14.90;;;12.50;;
846;SDS011;410;48.954;9.474;2023-04-21T08:18:26;15.40;;;12.20;;
846;SDS011;410;48.954;9.474;2023-04-21T08:20:30;15.87;;;12.40;;
846;SDS011;410;48.954;9.474;2023-04-21T08:22:33;18.57;;;14.17;;
846;SDS011;410;48.954;9.474;2023-04-21T08:24:37;16.60;;;13.70;;
846;SDS011;410;48.954;9.474;2023-04-21T08:26:40;19.80;;;15.30;;
846;SDS011;410;48.954;9.474;2023-04-21T08:28:43;19.23;;;14.70;;
846;SDS011;410;48.954;9.474;2023-04-21T08:30:50;18.17;;;14.20;;
846;SDS011;410;48.954;9.474;2023-04-21T08:32:53;17.83;;;13.57;;
846;SDS011;410;48.954;9.474;2023-04-21T08:34:56;19.43;;;15.07;;
846;SDS011;410;48.954;9.474;2023-04-21T08:36:59;15.53;;;13.20;;
846;SDS011;410;48.954;9.474;2023-04-21T08:39:03;16.20;;;12.90;;
846;SDS011;410;48.954;9.474;2023-04-21T08:41:06;17.67;;;13.17;;
846;SDS011;410;48.954;9.474;2023-04-21T08:43:10;13.73;;;11.30;;
846;SDS011;410;48.954;9.474;2023-04-21T08:45:13;16.30;;;13.47;;
846;SDS011;410;48.954;9.474;2023-04-21T08:47:18;17.77;;;13.30;;
846;SDS011;410;48.954;9.474;2023-04-21T08:49:22;16.63;;;12.67;;
846;SDS011;410;48.954;9.474;2023-04-21T08:51:26;15.73;;;12.77;;
846;SDS011;410;48.954;9.474;2023-04-21T08:53:30;15.93;;;12.67;;
846;SDS011;410;48.954;9.474;2023-04-21T08:55:33;15.80;;;12.07;;
846;SDS011;410;48.954;9.474;2023-04-21T08:57:37;16.00;;;13.50;;
846;SDS011;410;48.954;9.474;2023-04-21T08:59:40;14.80;;;13.27;;
846;SDS011;410;48.954;9.474;2023-04-21T09:04:16;15.50;;;12.90;;
846;SDS011;410;48.954;9.474;2023-04-21T09:06:20;15.43;;;12.10;;
846;SDS011;410;48.954;9.474;2023-04-21T09:08:24;14.50;;;11.60;;
846;SDS011;410;48.954;9.474;2023-04-21T09:10:29;13.77;;;11.43;;
846;SDS011;410;48.954;9.474;2023-04-21T09:12:32;12.70;;;11.10;;
846;SDS011;410;48.954;9.474;2023-04-21T09:14:35;12.83;;;10.30;;
846;SDS011;410;48.954;9.474;2023-04-21T09:16:38;11.60;;;10.40;;
846;SDS011;410;48.954;9.474;2023-04-21T09:18:41;13.13;;;10.70;;
846;SDS011;410;48.954;9.474;2023-04-21T09:20:47;12.17;;;10.50;;
846;SDS011;410;48.954;9.474;2023-04-21T09:22:51;14.03;;;11.27;;
846;SDS011;410;48.954;9.474;2023-04-21T09:24:56;12.60;;;10.60;;
846;SDS011;410;48.954;9.474;2023-04-21T09:27:01;11.73;;;10.03;;
846;SDS011;410;48.954;9.474;2023-04-21T09:29:05;11.87;;;9.90;;
846;SDS011;410;48.954;9.474;2023-04-21T09:31:12;13.17;;;10.43;;
846;SDS011;410;48.954;9.474;2023-04-21T09:33:17;12.80;;;10.70;;
846;SDS011;410;48.954;9.474;2023-04-21T09:35:31;12.93;;;11.37;;
846;SDS011;410;48.954;9.474;2023-04-21T09:37:36;12.90;;;11.20;;
846;SDS011;410;48.954;9.474;2023-04-21T09:39:43;13.60;;;12.20;;
846;SDS011;410;48.954;9.474;2023-04-21T09:42:05;12.37;;;11.07;;
846;SDS011;410;48.954;9.474;2023-04-21T09:44:08;12.97;;;10.63;;
846;SDS011;410;48.954;9.474;2023-04-21T09:46:11;15.90;;;11.83;;
846;SDS011;410;48.954;9.474;2023-04-21T09:48:15;14.37;;;12.03;;
846;SDS011;410;48.954;9.474;2023-04-21T09:50:22;14.17;;;11.60;;
846;SDS011;410;48.954;9.474;2023-04-21T09:52:48;13.57;;;11.20;;
846;SDS011;410;48.954;9.474;2023-04-21T09:54:55;14.97;;;11.80;;
846;SDS011;410;48.954;9.474;2023-04-21T09:57:00;14.60;;;11.97;;
846;SDS011;410;48.954;9.474;2023-04-21T09:59:05;13.03;;;11.50;;
846;SDS011;410;48.954;9.474;2023-04-21T10:01:09;13.60;;;11.33;;
846;SDS011;410;48.954;9.474;2023-04-21T10:03:13;16.33;;;11.63;;
846;SDS011;410;48.954;9.474;2023-04-21T10:05:19;12.80;;;11.00;;
846;SDS011;410;48.954;9.474;2023-04-21T10:07:22;13.97;;;11.70;;
846;SDS011;410;48.954;9.474;2023-04-21T10:09:29;14.37;;;11.70;;
846;SDS011;410;48.954;9.474;2023-04-21T10:11:33;12.10;;;10.80;;
846;SDS011;410;48.954;9.474;2023-04-21T10:13:37;14.03;;;12.20;;
846;SDS011;410;48.954;9.474;2023-04-21T10:15:41;16.97;;;13.30;;
846;SDS011;410;48.954;9.474;2023-04-21T10:17:45;13.73;;;12.30;;
846;SDS011;410;48.954;9.474;2023-04-21T10:19:50;14.47;;;12.97;;
846;SDS011;410;48.954;9.474;2023-04-21T10:21:54;15.53;;;12.60;;
846;SDS011;410;48.954;9.474;2023-04-21T10:23:58;13.03;;;11.63;;
846;SDS011;410;48.954;9.474;2023-04-21T10:26:03;14.63;;;12.90;;
846;SDS011;410;48.954;9.474;2023-04-21T10:28:08;14.80;;;12.40;;
846;SDS011;410;48.954;9.474;2023-04-21T10:30:18;13.90;;;12.40;;
846;SDS011;410;48.954;9.474;2023-04-21T10:32:30;15.03;;;12.83;;
846;SDS011;410;48.954;9.474;2023-04-21T10:34:34;14.93;;;12.30;;
846;SDS011;410;48.954;9.474;2023-04-21T10:36:41;15.97;;;13.30;;
846;SDS011;410;48.954;9.474;2023-04-21T10:38:53;14.43;;;12.67;;
846;SDS011;410;48.954;9.474;2023-04-21T10:41:07;17.30;;;14.70;;
846;SDS011;410;48.954;9.474;2023-04-21T10:43:40;15.17;;;13.50;;
846;SDS011;410;48.954;9.474;2023-04-21T10:45:47;15.53;;;13.03;;
846;SDS011;410;48.954;9.474;2023-04-21T10:47:51;15.87;;;12.93;;
846;SDS011;410;48.954;9.474;2023-04-21T10:49:55;15.27;;;13.07;;
846;SDS011;410;48.954;9.474;2023-04-21T10:52:02;15.83;;;12.83;;
846;SDS011;410;48.954;9.474;2023-04-21T10:54:06;13.53;;;11.93;;
846;SDS011;410;48.954;9.474;2023-04-21T10:56:11;15.03;;;13.20;;
846;SDS011;410;48.954;9.474;2023-04-21T10:58:14;16.87;;;13.07;;
846;SDS011;410;48.954;9.474;2023-04-21T11:00:19;15.30;;;13.33;;
846;SDS011;410;48.954;9.474;2023-04-21T11:02:23;19.53;;;16.57;;
846;SDS011;410;48.954;9.474;2023-04-21T11:04:27;19.50;;;16.00;;
846;SDS011;410;48.954;9.474;2023-04-21T11:06:31;18.70;;;16.20;;
846;SDS011;410;48.954;9.474;2023-04-21T11:08:34;15.10;;;13.47;;
846;SDS011;410;48.954;9.474;2023-04-21T11:10:56;16.17;;;14.00;;
846;SDS011;410;48.954;9.474;2023-04-21T11:13:01;15.30;;;12.90;;
846;SDS011;410;48.954;9.474;2023-04-21T11:15:05;15.57;;;13.73;;
846;SDS011;410;48.954;9.474;2023-04-21T11:17:10;18.37;;;14.60;;
846;SDS011;410;48.954;9.474;2023-04-21T11:19:14;13.97;;;12.47;;
846;SDS011;410;48.954;9.474;2023-04-21T11:21:18;14.23;;;12.50;;
846;SDS011;410;48.954;9.474;2023-04-21T11:23:22;15.83;;;13.60;;
846;SDS011;410;48.954;9.474;2023-04-21T11:25:25;15.70;;;13.63;;
846;SDS011;410;48.954;9.474;2023-04-21T11:27:28;14.17;;;11.87;;
846;SDS011;410;48.954;9.474;2023-04-21T11:29:33;13.90;;;12.40;;
846;SDS011;410;48.954;9.474;2023-04-21T11:31:37;14.93;;;12.90;;
846;SDS011;410;48.954;9.474;2023-04-21T11:33:41;14.10;;;12.63;;
846;SDS011;410;48.954;9.474;2023-04-21T11:35:45;14.43;;;12.93;;
846;SDS011;410;48.954;9.474;2023-04-21T11:37:49;17.90;;;13.87;;
846;SDS011;410;48.954;9.474;2023-04-21T11:39:56;16.33;;;13.60;;
846;SDS011;410;48.954;9.474;2023-04-21T11:42:00;16.77;;;12.70;;
846;SDS011;410;48.954;9.474;2023-04-21T11:44:03;15.47;;;13.60;;
846;SDS011;410;48.954;9.474;2023-04-21T11:46:15;13.87;;;11.60;;
846;SDS011;410;48.954;9.474;2023-04-21T11:48:19;15.00;;;13.00;;
846;SDS011;410;48.954;9.474;2023-04-21T11:50:28;14.73;;;13.10;;
846;SDS011;410;48.954;9.474;2023-04-21T11:52:33;14.70;;;12.53;;
846;SDS011;410;48.954;9.474;2023-04-21T11:54:38;16.13;;;14.37;;
846;SDS011;410;48.954;9.474;2023-04-21T11:56:41;14.63;;;13.13;;
846;SDS011;410;48.954;9.474;2023-04-21T11:58:45;14.30;;;12.13;;
846;SDS011;410;48.954;9.474;2023-04-21T12:00:49;14.87;;;12.63;;
846;SDS011;410;48.954;9.474;2023-04-21T12:02:54;13.83;;;12.20;;
846;SDS011;410;48.954;9.474;2023-04-21T12:04:59;14.30;;;12.80;;
846;SDS011;410;48.954;9.474;2023-04-21T12:07:04;14.13;;;12.40;;
846;SDS011;410;48.954;9.474;2023-04-21T12:09:07;14.90;;;11.57;;
846;SDS011;410;48.954;9.474;2023-04-21T12:11:10;13.07;;;11.63;;
846;SDS011;410;48.954;9.474;2023-04-21T12:13:17;13.67;;;12.17;;
846;SDS011;410;48.954;9.474;2023-04-21T12:15:24;14.27;;;12.47;;
846;SDS011;410;48.954;9.474;2023-04-21T12:17:33;15.03;;;11.60;;
846;SDS011;410;48.954;9.474;2023-04-21T12:19:40;14.47;;;11.83;;
846;SDS011;410;48.954;9.474;2023-04-21T12:21:43;15.30;;;10.87;;
846;SDS011;410;48.954;9.474;2023-04-21T12:23:46;12.50;;;11.20;;
846;SDS011;410;48.954;9.474;2023-04-21T12:25:49;12.57;;;11.27;;
846;SDS011;410;48.954;9.474;2023-04-21T12:27:57;12.23;;;10.30;;
846;SDS011;410;48.954;9.474;2023-04-21T12:30:00;13.80;;;11.27;;
846;SDS011;410;48.954;9.474;2023-04-21T12:32:05;13.90;;;12.43;;
846;SDS011;410;48.954;9.474;2023-04-21T12:34:09;12.63;;;11.33;;
846;SDS011;410;48.954;9.474;2023-04-21T12:36:13;12.50;;;10.60;;
846;SDS011;410;48.954;9.474;2023-04-21T12:38:17;11.83;;;10.30;;
846;SDS011;410;48.954;9.474;2023-04-21T12:40:20;13.03;;;10.80;;
846;SDS011;410;48.954;9.474;2023-04-21T12:42:23;11.53;;;10.33;;
846;SDS011;410;48.954;9.474;2023-04-21T12:44:27;12.30;;;10.73;;
846;SDS011;410;48.954;9.474;2023-04-21T12:46:30;10.83;;;9.67;;
846;SDS011;410;48.954;9.474;2023-04-21T12:48:33;12.07;;;10.60;;
846;SDS011;410;48.954;9.474;2023-04-21T12:50:36;12.53;;;9.73;;
846;SDS011;410;48.954;9.474;2023-04-21T12:52:41;11.50;;;10.30;;
846;SDS011;410;48.954;9.474;2023-04-21T12:54:44;11.60;;;9.37;;